createdAt,value
2022-11-14T00:00:49.098Z,9.07
2022-11-14T00:03:34.117Z,9.25
2022-11-14T00:06:19.650Z,9.37
2022-11-14T00:09:04.714Z,9.34
2022-11-14T00:11:49.601Z,9.48
2022-11-14T00:14:34.578Z,9.43
2022-11-14T00:17:19.800Z,9.09
2022-11-14T00:20:07.050Z,9.54
2022-11-14T00:22:52.071Z,9.40
2022-11-14T00:25:38.145Z,9.42
2022-11-14T00:28:23.513Z,9.31
2022-11-14T00:31:10.415Z,9.34
2022-11-14T00:33:55.507Z,9.04
2022-11-14T00:36:40.702Z,9.30
2022-11-14T00:39:25.967Z,8.68
2022-11-14T00:42:11.263Z,9.10
2022-11-14T00:44:56.509Z,9.00
2022-11-14T00:47:41.482Z,9.17
2022-11-14T00:50:26.408Z,9.22
2022-11-14T00:53:12.230Z,8.67
2022-11-14T00:55:57.369Z,9.25
2022-11-14T00:58:42.502Z,9.00
2022-11-14T01:01:27.947Z,8.96
2022-11-14T01:04:13.057Z,8.95
2022-11-14T01:06:58.065Z,9.14
2022-11-14T01:09:43.355Z,9.15
2022-11-14T01:12:28.201Z,9.23
2022-11-14T01:15:13.662Z,9.00
2022-11-14T01:17:58.892Z,9.37
2022-11-14T01:20:46.445Z,9.22
2022-11-14T01:23:31.450Z,9.22
2022-11-14T01:26:16.617Z,8.93
2022-11-14T01:29:02.098Z,8.99
2022-11-14T01:31:47.145Z,9.24
2022-11-14T01:34:32.481Z,9.13
2022-11-14T01:37:17.657Z,9.00
2022-11-14T01:40:02.726Z,9.13
2022-11-14T01:43:18.923Z,9.26
2022-11-14T01:46:04.744Z,8.87
2022-11-14T01:49:20.563Z,9.19
2022-11-14T01:52:17.509Z,8.88
2022-11-14T01:55:06.545Z,9.07
2022-11-14T01:57:52.063Z,9.07
2022-11-14T02:00:37.652Z,9.33
2022-11-14T02:06:15.187Z,9.06
2022-11-14T02:09:03.510Z,8.83
2022-11-14T02:11:49.499Z,8.71
2022-11-14T02:14:37.142Z,8.48
2022-11-14T02:17:29.641Z,8.87
2022-11-14T02:20:19.397Z,8.93
2022-11-14T02:23:04.809Z,8.94
2022-11-14T02:25:50.008Z,8.99
2022-11-14T02:28:35.565Z,8.91
2022-11-14T02:31:20.724Z,8.76
2022-11-14T02:34:05.740Z,8.70
2022-11-14T02:36:51.218Z,8.68
2022-11-14T02:39:36.501Z,8.73
2022-11-14T02:42:21.625Z,8.45
2022-11-14T02:45:07.637Z,8.56
2022-11-14T02:47:53.017Z,8.68
2022-11-14T02:50:38.240Z,8.90
2022-11-14T02:53:23.368Z,8.96
2022-11-14T02:56:08.280Z,8.53
2022-11-14T02:58:53.819Z,8.70
2022-11-14T03:01:39.211Z,8.81
2022-11-14T03:04:24.206Z,9.03
2022-11-14T03:07:09.224Z,8.62
2022-11-14T03:09:54.594Z,8.93
2022-11-14T03:12:40.299Z,8.78
2022-11-14T03:15:25.222Z,8.72
2022-11-14T03:18:10.754Z,8.64
2022-11-14T03:20:56.145Z,8.77
2022-11-14T03:23:41.329Z,8.78
2022-11-14T03:26:26.574Z,8.58
2022-11-14T03:29:11.646Z,8.46
2022-11-14T03:31:56.849Z,8.70
2022-11-14T03:34:42.582Z,8.85
2022-11-14T03:37:27.902Z,8.57
2022-11-14T03:40:13.205Z,8.42
2022-11-14T03:42:58.338Z,8.42
2022-11-14T03:45:44.061Z,8.61
2022-11-14T03:48:30.282Z,8.80
2022-11-14T03:51:15.630Z,8.55
2022-11-14T03:54:00.853Z,8.69
2022-11-14T03:56:45.763Z,8.57
2022-11-14T03:59:30.701Z,8.65
2022-11-14T04:02:15.438Z,8.51
2022-11-14T04:05:00.465Z,8.64
2022-11-14T04:07:45.608Z,8.48
2022-11-14T04:10:30.463Z,8.62
2022-11-14T04:13:15.767Z,8.48
2022-11-14T04:16:00.518Z,8.45
2022-11-14T04:18:45.744Z,8.47
2022-11-14T04:21:30.936Z,8.56
2022-11-14T04:24:16.350Z,8.63
2022-11-14T04:27:01.614Z,8.58
2022-11-14T04:29:46.886Z,8.50
2022-11-14T04:32:32.029Z,8.57
2022-11-14T04:35:17.161Z,8.61
2022-11-14T04:38:03.328Z,8.61
2022-11-14T04:40:50.803Z,8.09
2022-11-14T04:43:35.914Z,8.11
2022-11-14T04:46:21.301Z,8.45
2022-11-14T04:49:06.381Z,8.53
2022-11-14T04:51:51.354Z,8.51
2022-11-14T04:54:36.454Z,8.44
2022-11-14T04:57:21.600Z,8.04
2022-11-14T05:00:07.654Z,8.51
2022-11-14T05:02:52.746Z,8.34
2022-11-14T05:05:41.756Z,8.21
2022-11-14T05:08:27.555Z,8.09
2022-11-14T05:11:18.045Z,8.43
2022-11-14T05:14:03.024Z,8.30
2022-11-14T05:16:48.367Z,8.27
2022-11-14T05:19:33.525Z,8.58
2022-11-14T05:22:19.325Z,8.55
2022-11-14T05:25:05.704Z,8.43
2022-11-14T05:27:51.226Z,8.47
2022-11-14T05:30:36.612Z,8.17
2022-11-14T05:33:21.729Z,8.32
2022-11-14T05:36:17.185Z,8.68
2022-11-14T05:39:02.539Z,8.32
2022-11-14T05:41:47.781Z,8.46
2022-11-14T05:44:32.737Z,8.23
2022-11-14T05:47:18.125Z,8.42
2022-11-14T05:50:04.151Z,8.51
2022-11-14T05:52:49.179Z,8.55
2022-11-14T05:55:34.394Z,8.50
2022-11-14T05:58:19.848Z,8.24
2022-11-14T06:01:13.871Z,8.25
2022-11-14T06:03:59.109Z,8.37
2022-11-14T06:06:44.204Z,8.45
2022-11-14T06:09:29.922Z,8.30
2022-11-14T06:12:14.822Z,7.98
2022-11-14T06:15:00.164Z,8.02
2022-11-14T06:17:45.632Z,8.49
2022-11-14T06:20:30.768Z,8.60
2022-11-14T06:23:19.452Z,8.73
2022-11-14T06:26:14.704Z,8.56
2022-11-14T06:29:00.749Z,8.62
2022-11-14T06:31:45.899Z,8.50
2022-11-14T06:34:31.058Z,8.56
2022-11-14T06:37:16.195Z,8.45
2022-11-14T06:40:01.259Z,8.57
2022-11-14T06:42:46.082Z,8.57
2022-11-14T06:45:30.857Z,8.53
2022-11-14T06:48:15.945Z,8.78
2022-11-14T06:51:03.147Z,8.61
2022-11-14T06:53:48.261Z,8.66
2022-11-14T06:56:33.559Z,8.51
2022-11-14T06:59:18.851Z,8.46
2022-11-14T07:02:04.117Z,8.41
2022-11-14T07:04:49.218Z,8.78
2022-11-14T07:07:34.442Z,8.76
2022-11-14T07:10:19.811Z,8.59
2022-11-14T07:13:05.035Z,8.70
2022-11-14T07:15:54.138Z,8.59
2022-11-14T07:18:38.942Z,8.54
2022-11-14T07:21:25.479Z,8.19
2022-11-14T07:24:10.865Z,8.61
2022-11-14T07:26:56.000Z,8.53
2022-11-14T07:29:41.170Z,8.75
2022-11-14T07:32:26.057Z,8.41
2022-11-14T07:35:11.260Z,8.41
2022-11-14T07:38:03.990Z,8.74
2022-11-14T07:40:59.517Z,8.64
2022-11-14T07:43:45.655Z,8.62
2022-11-14T07:46:30.636Z,8.91
2022-11-14T07:49:16.144Z,8.81
2022-11-14T07:52:02.327Z,8.74
2022-11-14T07:54:47.362Z,8.76
2022-11-14T07:57:37.056Z,8.48
2022-11-14T08:00:26.011Z,8.33
2022-11-14T08:03:11.400Z,8.35
2022-11-14T08:08:51.957Z,8.21
2022-11-14T08:11:49.313Z,8.39
2022-11-14T08:14:34.671Z,8.53
2022-11-14T08:17:21.734Z,8.57
2022-11-14T08:20:08.663Z,8.61
2022-11-14T08:22:54.921Z,8.36
2022-11-14T08:25:41.667Z,8.29
2022-11-14T08:28:27.119Z,8.42
2022-11-14T08:31:13.743Z,8.51
2022-11-14T08:33:59.019Z,8.52
2022-11-14T08:36:43.965Z,8.21
2022-11-14T08:39:29.716Z,8.37
2022-11-14T08:42:14.890Z,8.80
2022-11-14T08:44:59.953Z,8.87
2022-11-14T08:47:51.548Z,8.94
2022-11-14T08:50:36.562Z,9.22
2022-11-14T08:53:21.828Z,9.19
2022-11-14T08:56:07.101Z,9.10
2022-11-14T08:58:52.046Z,9.23
2022-11-14T09:01:37.773Z,9.18
2022-11-14T09:04:23.064Z,9.39
2022-11-14T09:07:08.578Z,9.35
2022-11-14T09:09:53.856Z,9.43
2022-11-14T09:12:38.959Z,9.55
2022-11-14T09:15:24.696Z,9.41
2022-11-14T09:18:11.186Z,9.66
2022-11-14T09:21:03.996Z,9.34
2022-11-14T09:23:49.372Z,9.35
2022-11-14T09:26:34.655Z,9.75
2022-11-14T09:29:19.796Z,9.62
2022-11-14T09:32:05.168Z,10.04
2022-11-14T09:34:50.281Z,10.19
2022-11-14T09:37:35.336Z,10.31
2022-11-14T09:40:20.646Z,10.06
2022-11-14T09:43:39.205Z,10.36
2022-11-14T09:46:53.999Z,10.19
2022-11-14T09:49:41.742Z,10.05
2022-11-14T09:52:48.965Z,10.45
2022-11-14T09:55:37.091Z,10.28
2022-11-14T09:58:23.307Z,10.80
2022-11-14T10:01:11.599Z,11.31
2022-11-14T10:04:09.577Z,11.05
2022-11-14T10:06:54.717Z,11.16
2022-11-14T10:10:14.200Z,11.40
2022-11-14T10:13:34.942Z,10.88
2022-11-14T10:16:20.152Z,10.86
2022-11-14T10:19:42.820Z,11.08
2022-11-14T10:22:46.933Z,11.64
2022-11-14T10:25:50.796Z,11.63
2022-11-14T10:29:08.607Z,11.31
2022-11-14T10:32:27.856Z,11.71
2022-11-14T10:35:19.238Z,11.42
2022-11-14T10:38:14.506Z,11.85
2022-11-14T10:41:04.675Z,11.63
2022-11-14T10:43:51.841Z,11.54
2022-11-14T10:46:41.669Z,11.62
2022-11-14T10:49:31.839Z,11.68
2022-11-14T10:52:21.538Z,11.40
2022-11-14T10:55:13.811Z,11.47
2022-11-14T10:57:59.183Z,11.57
2022-11-14T11:00:44.299Z,11.94
2022-11-14T11:03:43.529Z,12.15
2022-11-14T11:06:29.440Z,12.35
2022-11-14T11:09:45.500Z,12.85
2022-11-14T11:12:37.534Z,15.11
2022-11-14T11:15:26.447Z,16.11
2022-11-14T11:18:20.688Z,17.16
2022-11-14T11:21:11.249Z,18.54
2022-11-14T11:23:57.694Z,18.27
2022-11-14T11:26:42.694Z,17.53
2022-11-14T11:29:27.884Z,17.48
2022-11-14T11:32:26.173Z,18.05
2022-11-14T11:35:14.101Z,18.03
2022-11-14T11:38:02.886Z,18.06
2022-11-14T11:40:54.186Z,18.69
2022-11-14T11:43:56.715Z,18.36
2022-11-14T11:47:01.232Z,18.18
2022-11-14T11:49:54.278Z,18.28
2022-11-14T11:52:50.196Z,17.85
2022-11-14T11:55:44.033Z,18.57
2022-11-14T11:58:47.493Z,20.04
2022-11-14T12:01:32.365Z,19.42
2022-11-14T12:04:18.247Z,19.40
2022-11-14T12:07:17.264Z,20.49
2022-11-14T12:10:11.391Z,20.14
2022-11-14T12:13:12.044Z,19.53
2022-11-14T12:16:13.256Z,18.86
2022-11-14T12:19:20.316Z,19.35
2022-11-14T12:22:15.160Z,18.83
2022-11-14T12:25:38.197Z,19.31
2022-11-14T12:28:42.035Z,20.24
2022-11-14T12:31:32.163Z,20.36
2022-11-14T12:34:20.781Z,21.12
2022-11-14T12:37:15.458Z,20.58
2022-11-14T12:40:06.712Z,19.80
2022-11-14T12:42:52.657Z,19.38
2022-11-14T12:45:40.607Z,19.14
2022-11-14T12:48:25.811Z,17.70
2022-11-14T12:51:26.406Z,17.31
2022-11-14T12:54:44.637Z,17.06
2022-11-14T12:57:51.976Z,17.19
2022-11-14T13:01:01.720Z,17.18
2022-11-14T13:04:24.816Z,17.17
2022-11-14T13:07:47.786Z,17.32
2022-11-14T13:10:38.696Z,16.78
2022-11-14T13:13:42.276Z,17.22
2022-11-14T13:16:51.219Z,17.17
2022-11-14T13:20:04.668Z,16.70
2022-11-14T13:22:50.015Z,16.70
2022-11-14T13:25:35.394Z,16.32
2022-11-14T13:28:38.898Z,16.71
2022-11-14T13:31:36.132Z,17.09
2022-11-14T13:34:37.718Z,16.89
2022-11-14T13:37:44.967Z,17.04
2022-11-14T13:40:47.059Z,16.37
2022-11-14T13:43:50.833Z,17.28
2022-11-14T13:46:54.626Z,18.07
2022-11-14T13:49:52.431Z,17.53
2022-11-14T13:52:43.776Z,17.48
2022-11-14T13:55:53.766Z,18.19
2022-11-14T13:58:46.850Z,18.33
2022-11-14T14:01:32.109Z,17.55
2022-11-14T14:04:34.359Z,17.88
2022-11-14T14:10:22.483Z,16.61
2022-11-14T14:13:26.874Z,15.81
2022-11-14T14:16:40.435Z,15.60
2022-11-14T14:19:39.232Z,14.89
2022-11-14T14:22:39.541Z,14.99
2022-11-14T14:25:38.560Z,14.64
2022-11-14T14:28:36.239Z,14.76
2022-11-14T14:31:23.477Z,14.76
2022-11-14T14:34:28.511Z,15.07
2022-11-14T14:37:25.955Z,14.64
2022-11-14T14:40:24.926Z,14.42
2022-11-14T14:43:22.115Z,14.12
2022-11-14T14:46:07.780Z,14.35
2022-11-14T14:48:55.588Z,14.19
2022-11-14T14:51:42.842Z,14.07
2022-11-14T14:54:32.321Z,13.97
2022-11-14T14:57:23.015Z,13.89
2022-11-14T15:00:21.894Z,14.07
2022-11-14T15:03:10.313Z,13.77
2022-11-14T15:06:00.475Z,13.79
2022-11-14T15:08:46.493Z,13.45
2022-11-14T15:11:32.942Z,13.27
2022-11-14T15:14:23.315Z,13.19
2022-11-14T15:17:10.467Z,12.96
2022-11-14T15:19:55.656Z,13.12
2022-11-14T15:22:41.388Z,12.86
2022-11-14T15:25:26.641Z,12.45
2022-11-14T15:28:23.615Z,13.10
2022-11-14T15:31:22.459Z,12.55
2022-11-14T15:34:32.300Z,11.94
2022-11-14T15:37:17.257Z,12.49
2022-11-14T15:40:22.725Z,12.61
2022-11-14T15:43:45.317Z,12.16
2022-11-14T15:46:33.339Z,11.61
2022-11-14T15:49:23.656Z,12.05
2022-11-14T15:52:19.717Z,11.65
2022-11-14T15:55:12.429Z,11.67
2022-11-14T15:58:26.057Z,11.62
2022-11-14T16:01:03.405Z,11.87
2022-11-14T16:03:51.555Z,11.90
2022-11-14T16:06:36.977Z,11.71
2022-11-14T16:09:22.255Z,11.80
2022-11-14T16:12:07.862Z,11.78
2022-11-14T16:14:52.924Z,11.90
2022-11-14T16:17:40.325Z,11.67
2022-11-14T16:20:28.245Z,11.73
2022-11-14T16:23:13.999Z,11.86
2022-11-14T16:25:59.137Z,11.79
2022-11-14T16:28:44.341Z,11.91
2022-11-14T16:31:29.661Z,11.68
2022-11-14T16:34:26.316Z,12.03
2022-11-14T16:37:13.214Z,12.03
2022-11-14T16:39:58.401Z,11.98
2022-11-14T16:42:43.652Z,12.08
2022-11-14T16:45:28.820Z,11.86
2022-11-14T16:48:14.042Z,12.06
2022-11-14T16:51:14.827Z,11.87
2022-11-14T16:54:13.438Z,12.03
2022-11-14T16:56:58.586Z,11.89
2022-11-14T16:59:43.671Z,11.84
2022-11-14T17:02:28.834Z,11.68
2022-11-14T17:05:14.301Z,11.71
2022-11-14T17:07:59.632Z,11.63
2022-11-14T17:10:46.408Z,11.71
2022-11-14T17:13:32.114Z,11.87
2022-11-14T17:16:17.806Z,11.58
2022-11-14T17:19:02.973Z,11.53
2022-11-14T17:21:48.183Z,11.56
2022-11-14T17:24:33.452Z,11.26
2022-11-14T17:27:18.574Z,11.60
2022-11-14T17:30:03.872Z,11.62
2022-11-14T17:32:53.742Z,11.55
2022-11-14T17:35:41.254Z,11.36
2022-11-14T17:38:26.449Z,11.30
2022-11-14T17:41:11.414Z,11.66
2022-11-14T17:43:58.832Z,11.27
2022-11-14T17:46:44.109Z,11.21
2022-11-14T17:49:29.130Z,11.53
2022-11-14T17:52:14.473Z,11.37
2022-11-14T17:54:59.609Z,11.33
2022-11-14T17:57:44.903Z,11.27
2022-11-14T18:00:29.885Z,11.32
2022-11-14T18:03:15.180Z,11.29
2022-11-14T18:06:17.094Z,11.38
2022-11-14T18:09:05.072Z,11.52
2022-11-14T18:11:50.374Z,11.44
2022-11-14T18:14:35.782Z,11.26
2022-11-14T18:17:21.185Z,11.46
2022-11-14T18:20:07.278Z,11.50
2022-11-14T18:22:52.311Z,11.76
2022-11-14T18:25:37.452Z,11.41
2022-11-14T18:28:22.840Z,11.39
2022-11-14T18:31:11.018Z,11.56
2022-11-14T18:33:56.594Z,11.38
2022-11-14T18:36:41.473Z,11.45
2022-11-14T18:39:28.964Z,11.45
2022-11-14T18:42:14.377Z,11.34
2022-11-14T18:44:59.205Z,11.25
2022-11-14T18:47:44.282Z,11.26
2022-11-14T18:50:31.058Z,11.24
2022-11-14T18:53:16.141Z,11.16
2022-11-14T18:56:12.806Z,11.44
2022-11-14T18:58:58.461Z,11.10
2022-11-14T19:01:44.147Z,11.35
2022-11-14T19:04:29.560Z,11.20
2022-11-14T19:07:15.355Z,11.13
2022-11-14T19:10:00.629Z,11.13
2022-11-14T19:12:48.941Z,11.21
2022-11-14T19:15:34.176Z,11.04
2022-11-14T19:18:19.218Z,11.16
2022-11-14T19:21:04.624Z,11.18
2022-11-14T19:23:50.587Z,11.14
2022-11-14T19:26:36.136Z,11.05
2022-11-14T19:29:21.443Z,11.16
2022-11-14T19:32:07.293Z,11.18
2022-11-14T19:34:52.281Z,10.96
2022-11-14T19:37:37.478Z,11.10
2022-11-14T19:40:22.765Z,10.75
2022-11-14T19:43:10.745Z,10.77
2022-11-14T19:46:00.750Z,10.89
2022-11-14T19:48:46.192Z,11.00
2022-11-14T19:51:32.866Z,10.45
2022-11-14T19:54:18.509Z,10.47
2022-11-14T19:57:03.760Z,10.48
2022-11-14T19:59:49.088Z,10.68
2022-11-14T20:02:34.315Z,10.63
2022-11-14T20:05:19.623Z,10.55
2022-11-14T20:08:04.866Z,10.26
2022-11-14T20:13:42.089Z,10.75
2022-11-14T20:16:30.000Z,10.59
2022-11-14T20:19:16.191Z,10.58
2022-11-14T20:22:01.657Z,10.21
2022-11-14T20:24:46.986Z,10.26
2022-11-14T20:27:32.189Z,10.30
2022-11-14T20:30:17.604Z,10.34
2022-11-14T20:33:02.825Z,10.28
2022-11-14T20:35:48.059Z,10.25
2022-11-14T20:38:33.396Z,10.19
2022-11-14T20:41:20.065Z,10.14
2022-11-14T20:44:05.142Z,10.07
2022-11-14T20:46:50.384Z,9.84
2022-11-14T20:49:35.713Z,10.40
2022-11-14T20:52:21.104Z,10.22
2022-11-14T20:55:11.634Z,10.27
2022-11-14T20:57:57.207Z,10.62
2022-11-14T21:00:42.300Z,10.43
2022-11-14T21:03:28.333Z,10.74
2022-11-14T21:06:15.581Z,10.81
2022-11-14T21:09:00.801Z,10.40
2022-11-14T21:11:46.056Z,10.09
2022-11-14T21:14:31.275Z,10.01
2022-11-14T21:17:16.345Z,10.06
2022-11-14T21:20:01.749Z,10.08
2022-11-14T21:22:46.948Z,10.07
2022-11-14T21:25:32.289Z,9.96
2022-11-14T21:28:17.337Z,10.25
2022-11-14T21:31:13.624Z,9.85
2022-11-14T21:34:00.183Z,9.94
2022-11-14T21:36:46.961Z,9.80
2022-11-14T21:39:32.372Z,9.61
2022-11-14T21:42:18.739Z,9.89
2022-11-14T21:45:04.352Z,9.56
2022-11-14T21:47:49.751Z,9.43
2022-11-14T21:50:35.045Z,9.97
2022-11-14T21:53:20.549Z,9.85
2022-11-14T21:56:22.209Z,9.94
2022-11-14T21:59:13.878Z,9.85
2022-11-14T22:02:18.301Z,9.91
2022-11-14T22:05:03.833Z,9.88
2022-11-14T22:07:48.709Z,9.66
2022-11-14T22:10:33.688Z,9.98
2022-11-14T22:13:18.920Z,9.96
2022-11-14T22:16:05.627Z,10.06
2022-11-14T22:18:57.167Z,9.85
2022-11-14T22:21:46.316Z,9.81
2022-11-14T22:24:31.317Z,9.98
2022-11-14T22:27:16.484Z,9.85
2022-11-14T22:30:01.643Z,10.03
2022-11-14T22:32:46.856Z,10.23
2022-11-14T22:35:35.343Z,10.04
2022-11-14T22:38:20.826Z,9.99
2022-11-14T22:41:10.916Z,9.96
2022-11-14T22:43:56.700Z,10.02
2022-11-14T22:46:41.574Z,9.75
2022-11-14T22:49:26.777Z,10.00
2022-11-14T22:52:12.047Z,10.29
2022-11-14T22:54:57.116Z,10.37
2022-11-14T22:57:42.270Z,10.09
2022-11-14T23:00:27.287Z,10.18
2022-11-14T23:03:17.578Z,10.14
2022-11-14T23:06:10.672Z,10.18
2022-11-14T23:08:55.997Z,10.15
2022-11-14T23:11:41.175Z,10.03
2022-11-14T23:14:26.277Z,10.28
2022-11-14T23:17:11.738Z,10.27
2022-11-14T23:19:57.516Z,9.93
2022-11-14T23:22:42.714Z,10.21
2022-11-14T23:25:27.881Z,10.05
2022-11-14T23:28:13.352Z,10.17
2022-11-14T23:30:59.579Z,9.85
2022-11-14T23:33:53.156Z,9.63
2022-11-14T23:36:38.419Z,9.62
2022-11-14T23:39:23.698Z,9.54
2022-11-14T23:42:08.865Z,9.69
2022-11-14T23:44:54.419Z,9.58
2022-11-14T23:47:39.752Z,9.50
2022-11-14T23:50:25.095Z,9.26
2022-11-14T23:53:11.268Z,9.54
2022-11-14T23:56:00.841Z,9.08
2022-11-14T23:58:45.956Z,9.32
